Time;durP1;ratioP1;P1;durP2;ratioP2;P2;SDS_P1;SDS_P2;PMS_P1;PMS_P2;Temp;Humidity;BMP_temperature;BMP_pressure;BME280_temperature;BME280_humidity;BME280_pressure;Samples;Min_cycle;Max_cycle;Signal;HPM_P1;HPM_P2
2022/06/02 00:01:07;;;;;;;13.00;12.02;;;;;;;;;;5213495;28;20021;-79
2022/06/02 00:03:41;;;;;;;12.60;11.70;;;;;;;;;;5210243;28;20720;-80
2022/06/02 00:06:14;;;;;;;13.27;12.40;;;;;;;;;;5193321;28;20051;-79
2022/06/02 00:09:05;;;;;;;13.27;11.98;;;;;;;;;;5210592;28;20087;-79
2022/06/02 00:11:35;;;;;;;13.48;12.57;;;;;;;;;;5169942;28;20032;-78
2022/06/02 00:14:18;;;;;;;13.53;12.27;;;;;;;;;;5210531;28;20412;-78
2022/06/02 00:16:49;;;;;;;13.85;12.85;;;;;;;;;;5213333;28;20100;-79
2022/06/02 00:19:31;;;;;;;11.80;11.00;;;;;;;;;;5213282;28;20049;-78
2022/06/02 00:22:16;;;;;;;11.95;11.20;;;;;;;;;;5213172;28;20264;-78
2022/06/02 00:24:47;;;;;;;12.18;11.13;;;;;;;;;;5212706;28;20032;-79
2022/06/02 00:27:36;;;;;;;13.97;13.07;;;;;;;;;;5193240;28;20499;-80
2022/06/02 00:30:16;;;;;;;13.90;13.02;;;;;;;;;;5209476;28;20284;-79
2022/06/02 00:32:52;;;;;;;14.65;13.65;;;;;;;;;;5213056;28;20025;-79
2022/06/02 00:35:28;;;;;;;16.08;14.60;;;;;;;;;;5214588;28;20026;-78
2022/06/02 00:37:58;;;;;;;14.18;13.02;;;;;;;;;;5214737;28;20028;-80
2022/06/02 00:40:30;;;;;;;14.57;13.68;;;;;;;;;;5214230;28;20030;-80
2022/06/02 00:43:03;;;;;;;15.02;13.93;;;;;;;;;;5214356;28;20021;-80
2022/06/02 00:45:33;;;;;;;15.52;14.32;;;;;;;;;;5214322;28;20021;-80
2022/06/02 00:48:04;;;;;;;14.05;13.25;;;;;;;;;;5214440;28;20479;-80
2022/06/02 00:50:37;;;;;;;15.50;14.18;;;;;;;;;;5213127;28;20048;-80
2022/06/02 00:53:11;;;;;;;12.85;11.98;;;;;;;;;;5196077;28;20057;-78
2022/06/02 00:58:51;;;;;;;13.95;13.00;;;;;;;;;;5214018;28;20032;-79
2022/06/02 01:01:27;;;;;;;14.70;13.73;;;;;;;;;;5213989;28;20044;-80
2022/06/02 01:03:58;;;;;;;14.95;13.70;;;;;;;;;;5213915;28;20458;-80
2022/06/02 01:06:31;;;;;;;15.38;14.10;;;;;;;;;;5213756;28;20044;-79
2022/06/02 01:09:08;;;;;;;13.48;12.43;;;;;;;;;;5213838;28;20026;-80
2022/06/02 01:11:46;;;;;;;14.65;13.68;;;;;;;;;;5213918;28;20013;-79
2022/06/02 01:14:22;;;;;;;17.42;16.13;;;;;;;;;;5213094;28;20068;-80
2022/06/02 01:17:15;;;;;;;16.10;14.77;;;;;;;;;;5195368;28;20020;-80
2022/06/02 01:19:52;;;;;;;14.75;13.63;;;;;;;;;;5213244;28;20090;-80
2022/06/02 01:22:58;;;;;;;14.38;13.38;;;;;;;;;;5213948;28;20017;-79
2022/06/02 01:25:59;;;;;;;17.10;15.70;;;;;;;;;;5171773;28;20541;-79
2022/06/02 01:28:42;;;;;;;14.75;13.85;;;;;;;;;;5213832;28;20112;-80
2022/06/02 01:31:38;;;;;;;16.95;15.52;;;;;;;;;;5196045;28;20052;-79
2022/06/02 01:34:21;;;;;;;15.20;13.75;;;;;;;;;;5192440;28;20030;-81
2022/06/02 01:37:15;;;;;;;16.00;14.88;;;;;;;;;;5213458;28;20502;-80
2022/06/02 01:39:45;;;;;;;16.33;15.02;;;;;;;;;;5213675;28;20108;-80
2022/06/02 01:42:34;;;;;;;16.70;15.43;;;;;;;;;;5213793;28;20547;-80
2022/06/02 01:45:07;;;;;;;16.35;14.93;;;;;;;;;;5213140;28;20275;-79
2022/06/02 01:47:40;;;;;;;15.85;14.32;;;;;;;;;;5213641;28;20033;-80
2022/06/02 01:50:28;;;;;;;15.82;14.48;;;;;;;;;;5213064;28;20072;-80
2022/06/02 01:52:58;;;;;;;17.48;16.27;;;;;;;;;;5212896;28;20022;-79
2022/06/02 01:55:29;;;;;;;17.67;16.43;;;;;;;;;;5195410;28;20018;-80
2022/06/02 01:57:59;;;;;;;18.05;16.65;;;;;;;;;;5213595;28;20920;-80
2022/06/02 02:00:31;;;;;;;14.18;13.07;;;;;;;;;;5213035;28;20463;-80
2022/06/02 02:03:01;;;;;;;16.90;15.45;;;;;;;;;;5213273;28;20018;-80
2022/06/02 02:05:41;;;;;;;16.77;15.30;;;;;;;;;;5214118;28;20502;-79
2022/06/02 02:08:14;;;;;;;17.52;16.38;;;;;;;;;;5213536;28;20672;-80
2022/06/02 02:11:02;;;;;;;16.88;15.68;;;;;;;;;;5213002;28;20021;-80
2022/06/02 02:13:55;;;;;;;19.60;18.08;;;;;;;;;;5213653;28;20127;-81
2022/06/02 02:16:45;;;;;;;17.67;16.42;;;;;;;;;;5213314;28;20100;-79
2022/06/02 02:19:18;;;;;;;18.02;16.70;;;;;;;;;;5195044;28;20025;-81
2022/06/02 02:22:21;;;;;;;16.95;15.45;;;;;;;;;;5213678;28;20052;-79
2022/06/02 02:25:03;;;;;;;18.23;16.45;;;;;;;;;;5168205;28;20085;-80
2022/06/02 02:28:02;;;;;;;17.23;15.85;;;;;;;;;;5212545;28;20072;-80
2022/06/02 02:30:28;;;;;;;;;;;;;;;;;;5213227;28;20118;-80
2022/06/02 02:33:01;;;;;;;16.77;15.20;;;;;;;;;;5212459;28;19912;-82
2022/06/02 02:35:51;;;;;;;17.90;16.55;;;;;;;;;;5212276;28;20282;-79
2022/06/02 02:38:24;;;;;;;15.20;14.10;;;;;;;;;;5211210;28;20014;-80
2022/06/02 02:40:56;;;;;;;15.73;14.63;;;;;;;;;;5212190;28;20033;-78
2022/06/02 02:43:27;;;;;;;15.48;13.98;;;;;;;;;;5211843;28;20021;-81
2022/06/02 02:46:01;;;;;;;14.32;13.23;;;;;;;;;;5211993;28;20025;-80
2022/06/02 02:48:50;;;;;;;15.15;14.02;;;;;;;;;;5194562;28;20075;-79
2022/06/02 02:51:30;;;;;;;17.30;15.93;;;;;;;;;;5211702;28;20030;-79
2022/06/02 02:54:03;;;;;;;18.90;17.40;;;;;;;;;;5211275;28;20010;-80
2022/06/02 02:56:42;;;;;;;16.55;15.43;;;;;;;;;;5193889;28;20025;-80
2022/06/02 02:59:19;;;;;;;20.67;19.10;;;;;;;;;;5211836;28;20415;-78
2022/06/02 03:02:08;;;;;;;19.67;18.20;;;;;;;;;;5211409;28;20101;-79
2022/06/02 03:04:45;;;;;;;17.88;16.52;;;;;;;;;;5211395;28;20056;-80
2022/06/02 03:07:16;;;;;;;14.73;13.45;;;;;;;;;;5194270;28;20034;-79
2022/06/02 03:09:49;;;;;;;18.88;17.55;;;;;;;;;;5211893;28;20029;-80
2022/06/02 03:12:27;;;;;;;17.27;16.05;;;;;;;;;;5212488;28;20022;-80
2022/06/02 03:15:14;;;;;;;18.00;16.77;;;;;;;;;;5211874;28;20545;-79
2022/06/02 03:17:44;;;;;;;16.60;15.43;;;;;;;;;;5212058;28;20032;-80
2022/06/02 03:20:32;;;;;;;17.25;15.80;;;;;;;;;;5211796;28;20026;-80
2022/06/02 03:23:25;;;;;;;19.48;17.80;;;;;;;;;;5211327;28;20021;-79
2022/06/02 03:26:06;;;;;;;15.80;14.60;;;;;;;;;;5211358;28;20075;-79
2022/06/02 03:28:55;;;;;;;18.45;16.90;;;;;;;;;;5210676;28;20443;-78
2022/06/02 03:31:36;;;;;;;16.05;14.98;;;;;;;;;;5210826;28;20021;-80
2022/06/02 03:34:25;;;;;;;20.98;19.38;;;;;;;;;;5210618;28;20460;-80
2022/06/02 03:36:56;;;;;;;16.88;15.68;;;;;;;;;;5210184;28;20031;-80
2022/06/02 03:39:42;;;;;;;18.52;17.10;;;;;;;;;;5192270;28;20028;-79
2022/06/02 03:42:12;;;;;;;18.38;16.92;;;;;;;;;;5192162;28;20399;-79
2022/06/02 03:44:43;;;;;;;19.08;17.63;;;;;;;;;;5209625;28;20013;-79
2022/06/02 03:47:13;;;;;;;17.65;16.45;;;;;;;;;;5210133;28;20022;-79
2022/06/02 03:49:46;;;;;;;18.77;17.27;;;;;;;;;;5210363;28;20688;-80
2022/06/02 03:52:25;;;;;;;17.13;15.93;;;;;;;;;;5210400;28;20267;-80
2022/06/02 03:55:02;;;;;;;17.90;16.35;;;;;;;;;;5193468;28;20491;-79
2022/06/02 03:57:56;;;;;;;18.90;17.10;;;;;;;;;;5194254;28;20510;-80
2022/06/02 04:00:28;;;;;;;20.27;18.80;;;;;;;;;;5199692;28;20029;-79
2022/06/02 04:03:03;;;;;;;19.73;18.08;;;;;;;;;;5210977;28;20056;-78
2022/06/02 04:05:47;;;;;;;18.52;17.02;;;;;;;;;;5208667;28;20017;-79
2022/06/02 04:08:17;;;;;;;20.58;19.13;;;;;;;;;;5209010;28;20075;-81
2022/06/02 04:10:47;;;;;;;22.60;20.63;;;;;;;;;;5209555;28;20065;-80
2022/06/02 04:13:37;;;;;;;23.60;21.37;;;;;;;;;;5210892;28;20342;-82
2022/06/02 04:16:17;;;;;;;22.05;20.23;;;;;;;;;;5210590;28;20256;-82
2022/06/02 04:20:34;;;;;;;22.67;21.08;;;;;;;;;;5210979;28;20542;-82
2022/06/02 04:22:14;;;;;;;24.95;22.85;;;;;;;;;;5207889;28;20044;-80
2022/06/02 04:24:47;;;;;;;22.90;21.05;;;;;;;;;;5190580;28;20022;-78
2022/06/02 04:27:23;;;;;;;22.88;20.98;;;;;;;;;;5191374;28;20104;-79
2022/06/02 04:30:03;;;;;;;21.67;20.08;;;;;;;;;;5174714;28;20068;-79
2022/06/02 04:32:41;;;;;;;21.90;20.30;;;;;;;;;;5191382;28;20026;-79
2022/06/02 04:35:17;;;;;;;20.45;18.58;;;;;;;;;;5202410;28;20005;-80
2022/06/02 04:37:48;;;;;;;19.52;18.08;;;;;;;;;;5192838;28;20100;-78
2022/06/02 04:40:33;;;;;;;19.20;17.70;;;;;;;;;;5210822;28;20053;-79
2022/06/02 04:43:10;;;;;;;16.55;15.35;;;;;;;;;;5212405;28;20283;-78
2022/06/02 04:45:43;;;;;;;18.75;17.33;;;;;;;;;;5209890;28;20476;-79
2022/06/02 04:48:25;;;;;;;18.40;17.10;;;;;;;;;;5211533;28;20476;-80
2022/06/02 04:50:56;;;;;;;15.85;14.50;;;;;;;;;;5193255;28;20022;-81
2022/06/02 04:53:45;;;;;;;18.15;16.98;;;;;;;;;;5209996;28;20035;-79
2022/06/02 04:56:21;;;;;;;17.65;16.15;;;;;;;;;;5209237;28;20021;-78
2022/06/02 04:58:59;;;;;;;17.13;15.73;;;;;;;;;;5209397;28;20076;-78
2022/06/02 05:01:30;;;;;;;17.83;16.33;;;;;;;;;;5209592;28;20013;-78
2022/06/02 05:04:19;;;;;;;15.75;14.75;;;;;;;;;;5209386;28;20021;-82
2022/06/02 05:06:58;;;;;;;12.57;11.63;;;;;;;;;;5210181;28;20499;-78
2022/06/02 05:09:37;;;;;;;16.95;15.65;;;;;;;;;;5209128;28;20487;-81
2022/06/02 05:12:13;;;;;;;17.15;15.82;;;;;;;;;;5207877;28;20014;-80
2022/06/02 05:15:03;;;;;;;14.80;13.82;;;;;;;;;;5210062;28;20017;-79
2022/06/02 05:17:46;;;;;;;19.00;17.63;;;;;;;;;;5196107;28;20045;-80
2022/06/02 05:20:16;;;;;;;23.50;19.48;;;;;;;;;;5213551;28;20030;-79
2022/06/02 05:22:56;;;;;;;19.47;18.03;;;;;;;;;;5213867;28;20029;-79
2022/06/02 05:25:45;;;;;;;17.98;16.58;;;;;;;;;;5213260;28;20762;-79
2022/06/02 05:28:18;;;;;;;19.50;17.88;;;;;;;;;;5195393;28;20029;-80
2022/06/02 05:31:06;;;;;;;22.40;20.80;;;;;;;;;;5212394;28;20025;-80
2022/06/02 05:33:42;;;;;;;19.67;18.17;;;;;;;;;;5215897;28;20476;-80
2022/06/02 05:36:20;;;;;;;22.40;20.70;;;;;;;;;;5198857;28;20021;-80
2022/06/02 05:39:06;;;;;;;22.38;20.50;;;;;;;;;;5212796;28;20022;-79
2022/06/02 05:41:45;;;;;;;22.58;20.73;;;;;;;;;;5195670;28;20594;-80
2022/06/02 05:44:18;;;;;;;22.43;20.20;;;;;;;;;;5219300;28;20024;-80
2022/06/02 05:47:00;;;;;;;21.17;19.58;;;;;;;;;;5217656;28;20754;-81
2022/06/02 05:49:43;;;;;;;21.98;20.00;;;;;;;;;;5217899;28;20018;-80
2022/06/02 05:52:23;;;;;;;20.17;18.42;;;;;;;;;;5218103;28;20380;-80
2022/06/02 05:55:12;;;;;;;24.88;22.33;;;;;;;;;;5200238;28;20013;-82
2022/06/02 05:57:45;;;;;;;25.73;23.37;;;;;;;;;;5218674;28;20027;-80
2022/06/02 06:00:32;;;;;;;25.85;23.58;;;;;;;;;;5218364;28;20021;-81
2022/06/02 06:03:05;;;;;;;25.00;22.80;;;;;;;;;;5218454;28;20053;-80
2022/06/02 06:05:44;;;;;;;27.67;25.35;;;;;;;;;;5219351;28;20495;-80
2022/06/02 06:08:17;;;;;;;23.85;21.88;;;;;;;;;;5218746;28;20375;-80
2022/06/02 06:11:14;;;;;;;25.38;22.83;;;;;;;;;;5218930;28;20021;-80
2022/06/02 06:13:51;;;;;;;25.17;22.73;;;;;;;;;;5188838;28;20448;-81
2022/06/02 06:16:50;;;;;;;27.75;25.60;;;;;;;;;;5220193;28;20093;-80
2022/06/02 06:19:21;;;;;;;23.27;21.48;;;;;;;;;;5203681;28;20120;-80
2022/06/02 06:22:06;;;;;;;23.63;21.77;;;;;;;;;;5216533;28;20053;-80
2022/06/02 06:24:42;;;;;;;28.70;26.73;;;;;;;;;;5220225;28;20680;-82
2022/06/02 06:27:32;;;;;;;21.60;19.83;;;;;;;;;;5223272;28;20025;-81
2022/06/02 06:30:10;;;;;;;19.27;17.77;;;;;;;;;;5203196;28;20025;-82
2022/06/02 06:32:48;;;;;;;20.00;18.25;;;;;;;;;;5205054;28;20013;-81
2022/06/02 06:35:26;;;;;;;15.93;14.70;;;;;;;;;;5221566;28;20017;-80
2022/06/02 06:38:09;;;;;;;18.20;17.00;;;;;;;;;;5222322;28;20089;-80
2022/06/02 06:40:51;;;;;;;16.92;15.23;;;;;;;;;;5205872;28;20033;-81
2022/06/02 06:43:22;;;;;;;14.60;13.13;;;;;;;;;;5223305;28;20025;-82
2022/06/02 06:46:11;;;;;;;15.60;14.40;;;;;;;;;;5205186;28;20025;-81
2022/06/02 06:48:43;;;;;;;14.23;13.00;;;;;;;;;;5204497;28;20026;-81
2022/06/02 06:51:26;;;;;;;12.13;11.20;;;;;;;;;;5205192;28;20029;-81
2022/06/02 06:54:08;;;;;;;13.80;12.73;;;;;;;;;;5223251;28;20079;-81
2022/06/02 06:56:44;;;;;;;15.10;13.25;;;;;;;;;;5222744;28;20065;-81
2022/06/02 06:59:15;;;;;;;13.52;12.32;;;;;;;;;;5222451;28;20067;-81
2022/06/02 07:01:45;;;;;;;11.25;10.45;;;;;;;;;;5223152;28;20018;-81
2022/06/02 07:04:33;;;;;;;12.82;11.95;;;;;;;;;;5223400;28;20018;-82
2022/06/02 07:07:09;;;;;;;11.55;10.50;;;;;;;;;;5205397;28;20025;-81
2022/06/02 07:09:54;;;;;;;9.82;8.98;;;;;;;;;;5221164;23;20080;-81
2022/06/02 07:15:44;;;;;;;10.73;9.95;;;;;;;;;;5198125;28;20025;-80
2022/06/02 07:20:50;;;;;;;9.63;8.75;;;;;;;;;;5230191;22;20056;-62
2022/06/02 07:23:37;;;;;;;11.40;8.55;;;;;;;;;;5207954;28;20086;-61
2022/06/02 07:26:26;;;;;;;7.22;6.47;;;;;;;;;;5208035;28;20017;-62
2022/06/02 07:29:12;;;;;;;8.23;7.57;;;;;;;;;;5208277;28;20021;-62
2022/06/02 07:32:17;;;;;;;7.05;6.45;;;;;;;;;;5208106;28;20029;-61
2022/06/02 07:35:03;;;;;;;8.07;7.40;;;;;;;;;;5105673;29;20114;-62
2022/06/02 07:37:46;;;;;;;9.13;8.43;;;;;;;;;;5200613;28;20116;-62
2022/06/02 07:40:26;;;;;;;8.32;7.80;;;;;;;;;;5206674;28;20092;-61
2022/06/02 07:46:04;;;;;;;10.75;6.53;;;;;;;;;;5225324;28;20361;-61
2022/06/02 07:48:53;;;;;;;6.65;6.22;;;;;;;;;;5206431;28;20021;-62
2022/06/02 07:51:47;;;;;;;6.18;5.88;;;;;;;;;;5225491;28;20025;-62
2022/06/02 07:54:18;;;;;;;6.53;6.13;;;;;;;;;;5207493;28;20021;-69
2022/06/02 07:56:56;;;;;;;6.20;5.78;;;;;;;;;;5207517;28;20025;-61
2022/06/02 07:59:32;;;;;;;7.50;6.95;;;;;;;;;;5207560;28;20048;-62
2022/06/02 08:02:10;;;;;;;7.13;6.70;;;;;;;;;;5207482;28;20389;-61
2022/06/02 08:04:49;;;;;;;7.03;6.57;;;;;;;;;;5206946;28;20444;-61
2022/06/02 08:07:23;;;;;;;7.47;6.70;;;;;;;;;;5208427;28;20033;-61
2022/06/02 08:10:03;;;;;;;6.05;5.63;;;;;;;;;;5208125;28;20028;-61
2022/06/02 08:12:40;;;;;;;7.53;6.90;;;;;;;;;;5207752;28;20048;-61
2022/06/02 08:15:11;;;;;;;6.60;6.15;;;;;;;;;;5205224;28;20062;-61
2022/06/02 08:17:50;;;;;;;7.57;7.03;;;;;;;;;;5207543;28;20207;-60
2022/06/02 08:20:41;;;;;;;29.02;6.13;;;;;;;;;;5208264;28;20492;-60
2022/06/02 08:23:19;;;;;;;6.35;5.85;;;;;;;;;;5207474;28;20031;-61
2022/06/02 08:26:03;;;;;;;6.90;6.40;;;;;;;;;;5207406;28;20792;-62
2022/06/02 08:28:42;;;;;;;7.00;6.32;;;;;;;;;;5207765;28;20031;-62
2022/06/02 08:31:22;;;;;;;5.85;5.43;;;;;;;;;;5207448;28;20368;-60
2022/06/02 08:34:08;;;;;;;5.85;5.47;;;;;;;;;;5207081;28;20060;-60
2022/06/02 08:36:49;;;;;;;5.32;5.05;;;;;;;;;;5206846;28;20029;-60
2022/06/02 08:39:32;;;;;;;5.22;4.93;;;;;;;;;;5207002;28;20021;-61
2022/06/02 08:45:33;;;;;;;7.10;6.70;;;;;;;;;;5225074;28;20036;-62
2022/06/02 08:48:04;;;;;;;7.22;6.72;;;;;;;;;;5205520;28;20175;-62
2022/06/02 08:50:37;;;;;;;8.27;7.53;;;;;;;;;;5207188;28;20108;-62
2022/06/02 08:53:26;;;;;;;6.32;6.03;;;;;;;;;;5207537;28;20492;-62
2022/06/02 08:56:16;;;;;;;6.68;5.75;;;;;;;;;;5211027;28;20017;-64
2022/06/02 08:58:46;;;;;;;;;;;;;;;;;;5211475;28;20033;-62
2022/06/02 09:01:35;;;;;;;5.43;5.13;;;;;;;;;;5211408;28;20254;-62
2022/06/02 09:04:24;;;;;;;5.22;4.80;;;;;;;;;;5210774;28;20271;-62
2022/06/02 09:07:01;;;;;;;7.00;5.57;;;;;;;;;;5211149;28;20056;-62
2022/06/02 09:09:32;;;;;;;7.10;6.50;;;;;;;;;;5228931;28;20020;-62
2022/06/02 09:12:21;;;;;;;6.60;6.10;;;;;;;;;;5210951;28;20025;-62
2022/06/02 09:15:07;;;;;;;6.95;6.55;;;;;;;;;;5210472;28;20040;-62
2022/06/02 09:17:46;;;;;;;4.90;4.50;;;;;;;;;;5229083;28;20558;-62
2022/06/02 09:20:17;;;;;;;;;;;;;;;;;;5211207;28;20043;-62
2022/06/02 09:22:50;;;;;;;6.72;6.25;;;;;;;;;;5210512;28;20014;-63
2022/06/02 09:25:28;;;;;;;6.68;6.18;;;;;;;;;;5210506;28;20374;-62
2022/06/02 09:28:13;;;;;;;6.95;6.35;;;;;;;;;;5210776;28;20537;-62
2022/06/02 09:31:02;;;;;;;6.63;6.05;;;;;;;;;;5210371;28;20036;-63
2022/06/02 09:33:37;;;;;;;5.85;5.55;;;;;;;;;;5209493;28;20473;-62
2022/06/02 09:36:26;;;;;;;4.93;4.63;;;;;;;;;;5210402;28;20020;-62
2022/06/02 09:39:02;;;;;;;4.13;3.83;;;;;;;;;;5210323;28;20029;-62
2022/06/02 09:41:51;;;;;;;4.53;4.22;;;;;;;;;;5210144;28;20036;-60
2022/06/02 09:44:27;;;;;;;4.68;4.40;;;;;;;;;;5209051;28;20494;-62
2022/06/02 09:46:58;;;;;;;4.53;4.32;;;;;;;;;;5210197;28;20384;-60
2022/06/02 09:49:46;;;;;;;6.55;6.07;;;;;;;;;;5210289;28;20033;-61
2022/06/02 09:52:23;;;;;;;6.70;6.00;;;;;;;;;;5210506;28;20024;-61
2022/06/02 09:54:57;;;;;;;5.15;4.93;;;;;;;;;;5210153;28;20088;-61
2022/06/02 09:57:55;;;;;;;5.40;5.10;;;;;;;;;;5210147;28;20086;-61
2022/06/02 10:00:28;;;;;;;4.82;4.53;;;;;;;;;;5227595;28;20021;-61
2022/06/02 10:02:58;;;;;;;5.93;4.82;;;;;;;;;;5227424;28;20017;-61
2022/06/02 10:05:39;;;;;;;4.82;4.32;;;;;;;;;;5227531;28;20036;-62
2022/06/02 10:08:16;;;;;;;4.80;4.43;;;;;;;;;;5209913;28;20024;-61
2022/06/02 10:11:05;;;;;;;5.57;5.13;;;;;;;;;;5209776;28;20025;-62
2022/06/02 10:13:54;;;;;;;4.13;3.83;;;;;;;;;;5209799;28;20039;-61
2022/06/02 10:16:24;;;;;;;4.72;4.45;;;;;;;;;;5209476;28;20497;-61
2022/06/02 10:19:12;;;;;;;5.88;5.10;;;;;;;;;;5209713;28;20052;-62
2022/06/02 10:22:01;;;;;;;4.55;4.22;;;;;;;;;;5210314;28;20017;-62
2022/06/02 10:24:31;;;;;;;5.15;4.85;;;;;;;;;;5227652;28;20017;-61
2022/06/02 10:27:01;;;;;;;4.68;4.28;;;;;;;;;;5209400;28;20380;-63
2022/06/02 10:29:46;;;;;;;6.75;5.65;;;;;;;;;;5209319;28;20017;-63
2022/06/02 10:32:39;;;;;;;4.32;4.03;;;;;;;;;;5209602;28;20449;-62
2022/06/02 10:35:18;;;;;;;5.47;4.63;;;;;;;;;;5208998;28;20105;-61
2022/06/02 10:37:48;;;;;;;;;;;;;;;;;;5210161;28;20017;-61
2022/06/02 10:40:19;;;;;;;5.00;4.60;;;;;;;;;;5208400;28;20284;-61
2022/06/02 10:43:06;;;;;;;5.13;4.68;;;;;;;;;;5209532;28;20492;-61
2022/06/02 10:46:05;;;;;;;5.55;5.20;;;;;;;;;;5209427;28;20527;-61
2022/06/02 10:48:45;;;;;;;5.05;4.75;;;;;;;;;;5209447;28;20035;-61
2022/06/02 10:51:21;;;;;;;4.20;3.92;;;;;;;;;;5208997;28;20555;-60
2022/06/02 10:53:51;;;;;;;5.05;4.03;;;;;;;;;;5208037;28;20029;-62
2022/06/02 10:59:48;;;;;;;3.72;3.53;;;;;;;;;;5226834;28;20020;-62
2022/06/02 11:02:30;;;;;;;4.87;4.47;;;;;;;;;;5209129;28;20025;-63
2022/06/02 11:05:07;;;;;;;4.32;4.10;;;;;;;;;;5209092;28;20166;-62
2022/06/02 11:07:37;;;;;;;4.20;4.00;;;;;;;;;;5208461;28;20108;-62
2022/06/02 11:10:16;;;;;;;3.95;3.75;;;;;;;;;;5209274;28;20190;-63
2022/06/02 11:12:59;;;;;;;3.03;2.92;;;;;;;;;;5209333;28;20443;-62
2022/06/02 11:15:35;;;;;;;2.88;2.78;;;;;;;;;;5208529;28;20032;-63
2022/06/02 11:21:32;;;;;;;4.18;3.97;;;;;;;;;;5226297;28;20047;-62
2022/06/02 11:24:21;;;;;;;4.78;4.53;;;;;;;;;;5208475;28;20044;-62
2022/06/02 11:27:01;;;;;;;4.38;4.07;;;;;;;;;;5208284;28;20025;-62
2022/06/02 11:29:31;;;;;;;;;;;;;;;;;;5208845;28;20071;-62
2022/06/02 11:32:01;;;;;;;6.53;3.50;;;;;;;;;;5208073;28;19905;-62
2022/06/02 11:41:01;;;;;;;3.97;3.72;;;;;;;;;;5226394;28;20051;-62
2022/06/02 11:43:40;;;;;;;4.13;3.83;;;;;;;;;;5208746;28;20515;-62
2022/06/02 11:46:16;;;;;;;4.47;4.15;;;;;;;;;;5208495;28;20072;-63
2022/06/02 11:48:58;;;;;;;4.88;4.55;;;;;;;;;;5208243;28;20029;-62
2022/06/02 11:51:31;;;;;;;5.78;4.00;;;;;;;;;;5208187;28;20036;-63
2022/06/02 11:54:12;;;;;;;3.90;3.60;;;;;;;;;;5208454;28;20021;-62
2022/06/02 11:57:01;;;;;;;5.80;4.50;;;;;;;;;;5208461;28;20477;-63
2022/06/02 12:05:50;;;;;;;4.63;4.32;;;;;;;;;;5261794;22;20099;-91
2022/06/02 12:08:25;;;;;;;4.80;4.40;;;;;;;;;;5221455;28;20079;-92
2022/06/02 12:10:56;;;;;;;5.38;5.00;;;;;;;;;;5239218;28;20088;-91
2022/06/02 12:13:45;;;;;;;3.65;3.45;;;;;;;;;;5219292;28;20059;-91
2022/06/02 12:22:00;;;;;;;3.97;3.78;;;;;;;;;;5223910;28;20467;-64
2022/06/02 12:24:31;;;;;;;3.78;3.60;;;;;;;;;;5210006;28;20083;-65
2022/06/02 12:27:19;;;;;;;5.93;4.15;;;;;;;;;;5226870;28;20065;-64
2022/06/02 12:29:56;;;;;;;3.65;3.45;;;;;;;;;;5227963;28;20535;-63
2022/06/02 12:32:42;;;;;;;3.65;3.53;;;;;;;;;;5227988;28;20099;-64
2022/06/02 12:35:19;;;;;;;3.40;3.30;;;;;;;;;;5227632;28;20427;-64
2022/06/02 12:37:49;;;;;;;4.68;4.38;;;;;;;;;;5227758;28;20021;-64
2022/06/02 12:40:38;;;;;;;3.67;3.47;;;;;;;;;;5227990;28;20484;-62
2022/06/02 12:43:12;;;;;;;4.78;4.47;;;;;;;;;;5228042;28;20482;-64
2022/06/02 12:46:08;;;;;;;4.20;4.00;;;;;;;;;;5227848;28;20074;-64
2022/06/02 12:48:40;;;;;;;4.00;3.80;;;;;;;;;;5190416;28;20043;-63
2022/06/02 12:51:19;;;;;;;3.58;3.38;;;;;;;;;;5227871;28;20119;-63
2022/06/02 12:53:50;;;;;;;3.95;3.65;;;;;;;;;;5227604;28;20012;-63
2022/06/02 12:56:28;;;;;;;5.13;3.40;;;;;;;;;;5227830;28;20020;-63
2022/06/02 12:59:01;;;;;;;2.75;2.65;;;;;;;;;;5227617;28;20495;-64
2022/06/02 13:01:41;;;;;;;4.28;3.97;;;;;;;;;;5228117;28;20514;-63
2022/06/02 13:04:30;;;;;;;3.92;3.22;;;;;;;;;;5227467;28;20020;-62
2022/06/02 13:07:19;;;;;;;4.07;3.80;;;;;;;;;;5227531;28;20116;-64
2022/06/02 13:10:01;;;;;;;4.30;4.10;;;;;;;;;;5227427;28;20112;-64
2022/06/02 13:12:35;;;;;;;2.95;2.83;;;;;;;;;;5227594;28;20086;-64
2022/06/02 13:15:34;;;;;;;3.78;3.58;;;;;;;;;;5244483;28;20415;-64
2022/06/02 13:18:06;;;;;;;;;;;;;;;;;;5206728;28;20036;-64
2022/06/02 13:20:36;;;;;;;3.58;3.38;;;;;;;;;;5227463;28;20380;-64
2022/06/02 13:23:16;;;;;;;3.13;3.00;;;;;;;;;;5227939;28;20059;-63
2022/06/02 13:25:47;;;;;;;;;;;;;;;;;;5227820;28;20491;-64
2022/06/02 13:28:35;;;;;;;3.78;3.58;;;;;;;;;;5227569;28;19904;-63
2022/06/02 13:31:18;;;;;;;5.43;4.20;;;;;;;;;;5226265;28;20024;-63
2022/06/02 13:33:51;;;;;;;3.50;3.30;;;;;;;;;;5227062;28;20021;-61
2022/06/02 13:36:21;;;;;;;4.35;3.20;;;;;;;;;;5227245;28;20027;-63
2022/06/02 13:38:52;;;;;;;3.42;3.22;;;;;;;;;;5246234;28;20382;-62
2022/06/02 13:41:22;;;;;;;2.92;2.72;;;;;;;;;;5231226;28;20017;-63
2022/06/02 13:44:07;;;;;;;4.32;3.50;;;;;;;;;;5231048;28;20030;-63
2022/06/02 13:46:57;;;;;;;3.30;3.10;;;;;;;;;;5230814;28;20016;-63
2022/06/02 13:49:36;;;;;;;4.20;4.00;;;;;;;;;;5230765;28;20115;-63
2022/06/02 13:52:25;;;;;;;4.07;3.78;;;;;;;;;;5230937;28;20460;-63
2022/06/02 13:58:09;;;;;;;4.88;3.10;;;;;;;;;;5249196;28;20078;-64
2022/06/02 14:00:58;;;;;;;3.80;3.60;;;;;;;;;;5230496;28;20048;-63
2022/06/02 14:03:47;;;;;;;3.28;2.97;;;;;;;;;;5248220;28;20024;-64
2022/06/02 14:06:23;;;;;;;3.80;3.50;;;;;;;;;;5230653;28;20381;-64
2022/06/02 14:09:06;;;;;;;3.22;2.95;;;;;;;;;;5230634;28;20016;-63
2022/06/02 14:11:42;;;;;;;4.28;3.35;;;;;;;;;;5230311;28;20025;-62
2022/06/02 14:14:21;;;;;;;3.75;3.47;;;;;;;;;;5230122;28;20021;-64
2022/06/02 14:17:10;;;;;;;2.88;2.67;;;;;;;;;;5230526;28;20121;-64
2022/06/02 14:19:53;;;;;;;3.20;2.95;;;;;;;;;;5230158;28;20032;-63
2022/06/02 14:22:30;;;;;;;3.30;3.10;;;;;;;;;;5230418;28;20123;-64
2022/06/02 14:25:12;;;;;;;3.78;3.58;;;;;;;;;;5229850;28;20025;-63
2022/06/02 14:27:42;;;;;;;3.90;3.65;;;;;;;;;;5230327;28;20481;-63
2022/06/02 14:30:13;;;;;;;3.35;3.17;;;;;;;;;;5230001;28;20024;-62
2022/06/02 14:33:05;;;;;;;3.90;3.60;;;;;;;;;;5230108;28;20586;-64
2022/06/02 14:35:44;;;;;;;3.42;3.22;;;;;;;;;;5247525;28;20034;-63
2022/06/02 14:38:15;;;;;;;;;;;;;;;;;;5230741;28;20554;-63
2022/06/02 14:41:08;;;;;;;2.90;2.70;;;;;;;;;;5229588;28;19905;-63
2022/06/02 14:43:44;;;;;;;4.47;3.63;;;;;;;;;;5229651;28;20480;-63
2022/06/02 14:46:35;;;;;;;2.95;2.85;;;;;;;;;;5229847;28;20070;-63
2022/06/02 14:49:24;;;;;;;5.35;3.17;;;;;;;;;;5179485;28;20082;-63
2022/06/02 14:51:55;;;;;;;2.40;2.30;;;;;;;;;;5228804;28;20040;-64
2022/06/02 14:54:31;;;;;;;7.88;3.92;;;;;;;;;;5229114;28;20056;-63
2022/06/02 14:57:05;;;;;;;3.50;3.30;;;;;;;;;;5225438;28;20128;-63
2022/06/02 14:59:42;;;;;;;5.28;4.80;;;;;;;;;;5208993;28;20489;-62
2022/06/02 15:02:38;;;;;;;2.83;2.50;;;;;;;;;;5208877;28;20021;-64
2022/06/02 15:05:08;;;;;;;2.85;2.63;;;;;;;;;;5208590;28;20027;-64
2022/06/02 15:07:57;;;;;;;3.72;3.40;;;;;;;;;;5208767;28;20399;-64
2022/06/02 15:10:51;;;;;;;3.20;2.92;;;;;;;;;;5208542;28;20025;-64
2022/06/02 15:13:35;;;;;;;4.05;3.75;;;;;;;;;;5208314;28;20473;-64
2022/06/02 15:16:24;;;;;;;10.07;5.53;;;;;;;;;;5207864;28;20013;-64
2022/06/02 15:19:13;;;;;;;3.53;2.70;;;;;;;;;;5208098;28;20052;-63
2022/06/02 15:22:09;;;;;;;2.88;2.78;;;;;;;;;;5207506;28;20029;-63
2022/06/02 15:24:54;;;;;;;3.15;2.95;;;;;;;;;;5204264;28;20504;-63
2022/06/02 15:27:39;;;;;;;3.38;3.05;;;;;;;;;;5207991;28;20024;-63
2022/06/02 15:30:22;;;;;;;2.53;2.42;;;;;;;;;;5208040;28;20117;-64
2022/06/02 15:32:59;;;;;;;2.35;2.25;;;;;;;;;;5214700;28;20028;-63
2022/06/02 15:35:49;;;;;;;2.83;2.63;;;;;;;;;;5227801;28;20405;-64
2022/06/02 15:38:22;;;;;;;3.85;3.53;;;;;;;;;;5226738;28;20506;-65
2022/06/02 15:40:56;;;;;;;2.45;2.35;;;;;;;;;;5209349;28;20025;-66
2022/06/02 15:43:45;;;;;;;2.65;2.55;;;;;;;;;;5208377;28;20024;-66
2022/06/02 15:46:15;;;;;;;;;;;;;;;;;;5220638;28;20112;-66
2022/06/02 15:48:57;;;;;;;3.65;3.35;;;;;;;;;;5228040;28;20037;-66
2022/06/02 15:51:30;;;;;;;3.25;3.05;;;;;;;;;;5245379;28;20090;-65
2022/06/02 15:54:01;;;;;;;3.97;3.78;;;;;;;;;;5227952;28;20055;-65
2022/06/02 15:56:40;;;;;;;4.20;3.28;;;;;;;;;;5246384;28;20114;-65
2022/06/02 15:59:31;;;;;;;3.40;3.25;;;;;;;;;;5244117;28;20019;-66
2022/06/02 16:02:20;;;;;;;3.45;3.17;;;;;;;;;;5247759;28;20012;-66
2022/06/02 16:04:50;;;;;;;3.35;3.15;;;;;;;;;;5266636;28;20529;-65
2022/06/02 16:07:27;;;;;;;3.45;3.15;;;;;;;;;;5241059;28;20012;-66
2022/06/02 16:13:20;;;;;;;3.55;3.00;;;;;;;;;;5246341;28;20047;-65
2022/06/02 16:15:50;;;;;;;;;;;;;;;;;;5228518;28;20024;-65
2022/06/02 16:18:39;;;;;;;2.85;2.72;;;;;;;;;;5221767;28;19908;-63
2022/06/02 16:21:11;;;;;;;2.85;2.75;;;;;;;;;;5227511;28;20047;-65
2022/06/02 16:23:41;;;;;;;2.78;2.63;;;;;;;;;;5227903;28;20646;-66
2022/06/02 16:26:26;;;;;;;3.70;2.87;;;;;;;;;;5228615;28;20050;-65
2022/06/02 16:29:09;;;;;;;6.75;3.08;;;;;;;;;;5228529;28;20278;-66
2022/06/02 16:31:58;;;;;;;4.18;3.88;;;;;;;;;;5227807;28;20017;-65
2022/06/02 16:34:34;;;;;;;2.60;2.50;;;;;;;;;;5227119;28;20396;-65